createdAt,value
2022-10-19T00:01:07.446Z,17.80
2022-10-19T00:03:35.431Z,17.79
2022-10-19T00:06:10.421Z,17.77
2022-10-19T00:08:36.833Z,17.75
2022-10-19T00:11:03.300Z,17.73
2022-10-19T00:13:29.737Z,17.72
2022-10-19T00:15:56.136Z,17.71
2022-10-19T00:18:22.544Z,17.69
2022-10-19T00:20:48.968Z,17.67
2022-10-19T00:23:15.413Z,17.64
2022-10-19T00:25:41.780Z,17.62
2022-10-19T00:28:08.221Z,17.60
2022-10-19T00:30:38.422Z,17.60
2022-10-19T00:33:04.960Z,17.56
2022-10-19T00:35:31.352Z,17.53
2022-10-19T00:37:57.768Z,17.51
2022-10-19T00:40:24.205Z,17.49
2022-10-19T00:42:54.432Z,17.47
2022-10-19T00:45:20.856Z,17.45
2022-10-19T00:47:47.373Z,17.45
2022-10-19T00:50:14.877Z,17.43
2022-10-19T00:52:41.554Z,17.42
2022-10-19T00:55:08.567Z,17.40
2022-10-19T00:57:35.201Z,17.37
2022-10-19T01:00:03.460Z,17.34
2022-10-19T01:02:29.845Z,17.30
2022-10-19T01:04:56.265Z,17.26
2022-10-19T01:07:24.046Z,17.23
2022-10-19T01:09:50.806Z,17.20
2022-10-19T01:12:25.761Z,17.15
2022-10-19T01:15:08.781Z,17.12
2022-10-19T01:17:56.762Z,17.07
2022-10-19T01:20:41.721Z,17.04
2022-10-19T01:23:43.585Z,17.00
2022-10-19T01:26:19.017Z,16.98
2022-10-19T01:28:54.479Z,16.95
2022-10-19T01:31:27.594Z,16.95
2022-10-19T01:34:12.429Z,16.95
2022-10-19T01:36:41.897Z,16.96
2022-10-19T01:39:11.244Z,16.96
2022-10-19T01:41:47.890Z,16.96
2022-10-19T01:44:20.434Z,16.95
2022-10-19T01:46:52.791Z,16.94
2022-10-19T01:49:45.369Z,16.92
2022-10-19T01:52:15.090Z,16.89
2022-10-19T01:54:45.143Z,16.83
2022-10-19T01:57:13.125Z,16.75
2022-10-19T01:59:40.021Z,16.68
2022-10-19T02:02:09.511Z,16.60
2022-10-19T02:04:37.300Z,16.52
2022-10-19T02:07:04.458Z,16.47
2022-10-19T02:09:30.811Z,16.45
2022-10-19T02:11:59.359Z,16.41
2022-10-19T02:14:29.406Z,16.37
2022-10-19T02:17:01.984Z,16.37
2022-10-19T02:19:28.348Z,16.36
2022-10-19T02:21:56.361Z,16.39
2022-10-19T02:24:22.679Z,16.41
2022-10-19T02:26:49.188Z,16.44
2022-10-19T02:29:16.214Z,16.44
2022-10-19T02:31:43.039Z,16.45
2022-10-19T02:34:10.219Z,16.44
2022-10-19T02:36:36.583Z,16.44
2022-10-19T02:39:03.333Z,16.43
2022-10-19T02:41:34.247Z,16.44
2022-10-19T02:44:05.849Z,16.45
2022-10-19T02:46:37.568Z,16.45
2022-10-19T02:49:04.571Z,16.47
2022-10-19T02:51:32.851Z,16.49
2022-10-19T02:54:01.246Z,16.50
2022-10-19T02:56:30.627Z,16.52
2022-10-19T02:58:57.000Z,16.55
2022-10-19T03:01:23.428Z,16.58
2022-10-19T03:03:49.819Z,16.61
2022-10-19T03:06:16.197Z,16.62
2022-10-19T03:08:42.552Z,16.65
2022-10-19T03:11:08.961Z,16.66
2022-10-19T03:13:35.348Z,16.67
2022-10-19T03:16:08.604Z,16.67
2022-10-19T03:18:34.972Z,16.68
2022-10-19T03:21:02.208Z,16.69
2022-10-19T03:23:29.385Z,16.68
2022-10-19T03:25:55.739Z,16.71
2022-10-19T03:28:22.092Z,16.72
2022-10-19T03:30:48.413Z,16.73
2022-10-19T03:33:15.122Z,16.75
2022-10-19T03:35:41.533Z,16.77
2022-10-19T03:38:07.884Z,16.79
2022-10-19T03:40:34.303Z,16.83
2022-10-19T03:43:00.641Z,16.85
2022-10-19T03:45:27.004Z,16.89
2022-10-19T03:47:53.321Z,16.90
2022-10-19T03:50:21.195Z,16.93
2022-10-19T03:52:49.604Z,16.98
2022-10-19T03:55:16.633Z,17.02
2022-10-19T03:57:42.994Z,17.07
2022-10-19T04:00:10.321Z,17.15
2022-10-19T04:02:36.673Z,17.25
2022-10-19T04:05:03.086Z,17.34
2022-10-19T04:07:29.481Z,17.44
2022-10-19T04:09:55.862Z,17.56
2022-10-19T04:12:22.213Z,17.68
2022-10-19T04:14:58.135Z,17.79
2022-10-19T04:17:25.052Z,17.92
2022-10-19T04:19:51.401Z,18.05
2022-10-19T04:22:17.754Z,18.16
2022-10-19T04:24:44.105Z,18.30
2022-10-19T04:27:10.482Z,18.42
2022-10-19T04:29:36.822Z,18.57
2022-10-19T04:32:03.178Z,18.69
2022-10-19T04:34:29.578Z,18.82
2022-10-19T04:36:59.202Z,18.94
2022-10-19T04:39:25.571Z,19.05
2022-10-19T04:41:51.994Z,19.17
2022-10-19T04:44:18.426Z,19.26
2022-10-19T04:46:44.822Z,19.35
2022-10-19T04:49:11.323Z,19.41
2022-10-19T04:51:38.054Z,19.49
2022-10-19T04:54:04.809Z,19.55
2022-10-19T04:56:32.467Z,19.62
2022-10-19T04:59:02.014Z,19.69
2022-10-19T05:01:29.328Z,19.74
2022-10-19T05:06:42.791Z,19.81
2022-10-19T05:09:09.255Z,19.83
2022-10-19T05:11:35.678Z,19.86
2022-10-19T05:14:02.086Z,19.89
2022-10-19T05:16:28.598Z,19.93
2022-10-19T05:18:59.632Z,19.96
2022-10-19T05:21:27.650Z,19.99
2022-10-19T05:23:54.810Z,20.02
2022-10-19T05:26:22.951Z,20.04
2022-10-19T05:28:56.707Z,20.04
2022-10-19T05:31:24.738Z,20.02
2022-10-19T05:33:51.310Z,19.96
2022-10-19T05:36:27.597Z,19.89
2022-10-19T05:38:55.043Z,19.78
2022-10-19T05:41:22.265Z,19.69
2022-10-19T05:43:52.741Z,19.57
2022-10-19T05:46:19.121Z,19.43
2022-10-19T05:48:46.314Z,19.28
2022-10-19T05:51:13.583Z,19.12
2022-10-19T05:53:40.782Z,18.94
2022-10-19T05:56:08.063Z,18.77
2022-10-19T05:58:35.031Z,18.60
2022-10-19T06:01:01.991Z,18.44
2022-10-19T06:03:28.628Z,18.28
2022-10-19T06:05:55.492Z,18.12
2022-10-19T06:08:22.857Z,17.97
2022-10-19T06:10:49.561Z,17.80
2022-10-19T06:13:16.885Z,17.66
2022-10-19T06:15:43.566Z,17.52
2022-10-19T06:18:11.220Z,17.41
2022-10-19T06:20:38.842Z,17.28
2022-10-19T06:23:05.705Z,17.18
2022-10-19T06:25:32.586Z,17.06
2022-10-19T06:27:59.662Z,16.95
2022-10-19T06:30:26.607Z,16.88
2022-10-19T06:32:53.327Z,16.78
2022-10-19T06:35:20.127Z,16.71
2022-10-19T06:37:46.547Z,16.63
2022-10-19T06:40:13.085Z,16.56
2022-10-19T06:42:39.501Z,16.51
2022-10-19T06:45:09.859Z,16.47
2022-10-19T06:47:37.243Z,16.42
2022-10-19T06:50:05.017Z,16.40
2022-10-19T06:52:32.112Z,16.37
2022-10-19T06:55:00.091Z,16.34
2022-10-19T06:57:26.522Z,16.32
2022-10-19T06:59:53.737Z,16.29
2022-10-19T07:02:20.238Z,16.28
2022-10-19T07:04:46.590Z,16.25
2022-10-19T07:07:12.984Z,16.25
2022-10-19T07:09:39.355Z,16.25
2022-10-19T07:12:05.841Z,16.23
2022-10-19T07:14:38.534Z,16.24
2022-10-19T07:17:07.678Z,16.23
2022-10-19T07:19:34.385Z,16.22
2022-10-19T07:22:00.834Z,16.22
2022-10-19T07:24:27.230Z,16.23
2022-10-19T07:26:53.577Z,16.23
2022-10-19T07:29:19.965Z,16.23
2022-10-19T07:31:46.334Z,16.24
2022-10-19T07:34:13.889Z,16.24
2022-10-19T07:36:44.765Z,16.24
2022-10-19T07:39:12.526Z,16.25
2022-10-19T07:41:38.988Z,16.25
2022-10-19T07:44:05.354Z,16.24
2022-10-19T07:46:37.030Z,16.27
2022-10-19T07:49:04.439Z,16.28
2022-10-19T07:51:30.788Z,16.29
2022-10-19T07:54:00.139Z,16.30
2022-10-19T07:56:27.305Z,16.33
2022-10-19T07:58:54.712Z,16.35
2022-10-19T08:01:25.190Z,16.37
2022-10-19T08:06:38.863Z,16.45
2022-10-19T08:09:05.387Z,16.49
2022-10-19T08:11:32.824Z,16.51
2022-10-19T08:13:59.386Z,16.56
2022-10-19T08:16:27.565Z,16.60
2022-10-19T08:18:56.508Z,16.63
2022-10-19T08:21:22.959Z,16.66
2022-10-19T08:23:49.387Z,16.72
2022-10-19T08:26:15.727Z,16.76
2022-10-19T08:28:42.074Z,16.81
2022-10-19T08:31:19.280Z,16.84
2022-10-19T08:33:45.894Z,16.89
2022-10-19T08:36:13.208Z,16.95
2022-10-19T08:38:40.347Z,17.00
2022-10-19T08:41:18.280Z,17.04
2022-10-19T08:43:55.459Z,17.11
2022-10-19T08:46:30.090Z,17.15
2022-10-19T08:48:56.456Z,17.23
2022-10-19T08:51:23.069Z,17.26
2022-10-19T08:53:53.593Z,17.31
2022-10-19T08:56:45.941Z,17.35
2022-10-19T08:59:15.195Z,17.40
2022-10-19T09:01:44.691Z,17.43
2022-10-19T09:04:14.161Z,17.47
2022-10-19T09:06:48.570Z,17.52
2022-10-19T09:09:15.278Z,17.57
2022-10-19T09:11:47.350Z,17.62
2022-10-19T09:14:36.361Z,17.68
2022-10-19T09:17:04.076Z,17.75
2022-10-19T09:19:31.968Z,17.79
2022-10-19T09:22:07.765Z,17.85
2022-10-19T09:24:39.320Z,17.90
2022-10-19T09:27:06.011Z,17.95
2022-10-19T09:29:41.400Z,18.04
2022-10-19T09:32:15.694Z,18.15
2022-10-19T09:34:45.214Z,18.31
2022-10-19T09:37:18.837Z,18.47
2022-10-19T09:39:53.964Z,18.65
2022-10-19T09:42:21.870Z,18.81
2022-10-19T09:44:50.161Z,18.96
2022-10-19T09:47:16.559Z,19.06
2022-10-19T09:49:44.468Z,19.15
2022-10-19T09:52:23.294Z,19.19
2022-10-19T09:55:12.986Z,19.20
2022-10-19T09:57:42.944Z,19.21
2022-10-19T10:00:18.789Z,19.21
2022-10-19T10:02:55.625Z,19.19
2022-10-19T10:05:38.802Z,19.19
2022-10-19T10:08:12.434Z,19.21
2022-10-19T10:10:42.486Z,19.22
2022-10-19T10:13:16.890Z,19.25
2022-10-19T10:15:44.398Z,19.27
2022-10-19T10:18:14.246Z,19.30
2022-10-19T10:20:55.296Z,19.34
2022-10-19T10:23:23.862Z,19.39
2022-10-19T10:25:50.213Z,19.39
2022-10-19T10:28:21.188Z,19.39
2022-10-19T10:30:48.725Z,19.38
2022-10-19T10:33:43.844Z,19.36
2022-10-19T10:36:11.411Z,19.33
2022-10-19T10:38:45.646Z,19.32
2022-10-19T10:41:11.977Z,19.30
2022-10-19T10:43:48.927Z,19.29
2022-10-19T10:46:17.073Z,19.28
2022-10-19T10:48:44.794Z,19.28
2022-10-19T10:51:22.994Z,19.27
2022-10-19T10:53:49.505Z,19.28
2022-10-19T10:56:24.203Z,19.27
2022-10-19T10:59:02.547Z,19.28
2022-10-19T11:01:32.872Z,19.28
2022-10-19T11:04:01.246Z,19.28
2022-10-19T11:06:27.647Z,19.29
2022-10-19T11:09:01.807Z,19.29
2022-10-19T11:11:32.878Z,19.31
2022-10-19T11:14:04.562Z,19.32
2022-10-19T11:16:38.590Z,19.34
2022-10-19T11:22:21.310Z,19.40
2022-10-19T11:25:09.107Z,19.44
2022-10-19T11:27:47.634Z,19.47
2022-10-19T11:30:16.940Z,19.51
2022-10-19T11:32:46.095Z,19.54
2022-10-19T11:35:30.966Z,19.58
2022-10-19T11:38:20.855Z,19.59
2022-10-19T11:43:41.515Z,19.74
2022-10-19T11:46:17.052Z,19.82
2022-10-19T11:49:03.282Z,19.91
2022-10-19T11:51:49.803Z,19.97
2022-10-19T11:54:25.023Z,20.04
2022-10-19T11:57:04.077Z,20.07
2022-10-19T11:59:50.176Z,20.08
2022-10-19T12:02:16.652Z,20.09
2022-10-19T12:05:04.584Z,20.07
2022-10-19T12:07:34.048Z,20.06
2022-10-19T12:10:03.391Z,20.01
2022-10-19T12:12:30.905Z,19.98
2022-10-19T12:15:03.127Z,19.93
2022-10-19T12:17:31.386Z,19.86
2022-10-19T12:20:03.236Z,19.81
2022-10-19T12:22:30.180Z,19.76
2022-10-19T12:24:58.619Z,19.73
2022-10-19T12:27:29.823Z,19.70
2022-10-19T12:29:58.391Z,19.67
2022-10-19T12:32:25.002Z,19.63
2022-10-19T12:35:07.609Z,19.61
2022-10-19T12:37:52.940Z,19.59
2022-10-19T12:40:26.052Z,19.57
2022-10-19T12:43:10.622Z,19.57
2022-10-19T12:45:41.396Z,19.56
2022-10-19T12:48:20.121Z,19.54
2022-10-19T12:50:49.319Z,19.53
2022-10-19T12:53:30.927Z,19.53
2022-10-19T12:56:09.925Z,19.52
2022-10-19T12:58:36.264Z,19.51
2022-10-19T13:01:05.237Z,19.52
2022-10-19T13:03:36.821Z,19.51
2022-10-19T13:06:11.005Z,19.51
2022-10-19T13:08:52.657Z,19.49
2022-10-19T13:11:19.682Z,19.48
2022-10-19T13:13:57.359Z,19.46
2022-10-19T13:16:29.723Z,19.46
2022-10-19T13:18:58.927Z,19.45
2022-10-19T13:21:45.639Z,19.45
2022-10-19T13:24:24.166Z,19.44
2022-10-19T13:27:02.631Z,19.45
2022-10-19T13:29:49.277Z,19.45
2022-10-19T13:32:30.924Z,19.45
2022-10-19T13:35:15.958Z,19.44
2022-10-19T13:37:43.213Z,19.43
2022-10-19T13:40:23.741Z,19.43
2022-10-19T13:42:57.904Z,19.41
2022-10-19T13:45:25.072Z,19.39
2022-10-19T13:47:55.198Z,19.37
2022-10-19T13:50:27.571Z,19.35
2022-10-19T13:53:17.553Z,19.33
2022-10-19T13:55:47.476Z,19.31
2022-10-19T13:58:31.042Z,19.28
2022-10-19T14:01:06.524Z,19.26
2022-10-19T14:03:51.244Z,19.23
2022-10-19T14:06:27.507Z,19.22
2022-10-19T14:08:55.053Z,19.21
2022-10-19T14:11:36.412Z,19.21
2022-10-19T14:14:11.756Z,19.26
2022-10-19T14:16:50.536Z,19.31
2022-10-19T14:19:28.912Z,19.38
2022-10-19T14:22:00.001Z,19.47
2022-10-19T14:24:31.969Z,19.56
2022-10-19T14:27:05.988Z,19.66
2022-10-19T14:29:35.871Z,19.75
2022-10-19T14:32:02.352Z,19.84
2022-10-19T14:34:28.780Z,19.93
2022-10-19T14:36:55.860Z,20.01
2022-10-19T14:39:32.719Z,20.12
2022-10-19T14:42:06.194Z,20.22
2022-10-19T14:44:38.490Z,20.31
2022-10-19T14:47:24.001Z,20.40
2022-10-19T14:49:50.775Z,20.45
2022-10-19T14:52:22.831Z,20.51
2022-10-19T14:54:50.692Z,20.54
2022-10-19T14:57:20.416Z,20.57
2022-10-19T14:59:49.927Z,20.59
2022-10-19T15:02:19.433Z,20.61
2022-10-19T15:04:46.423Z,20.60
2022-10-19T15:07:18.812Z,20.61
2022-10-19T15:09:49.866Z,20.59
2022-10-19T15:12:18.089Z,20.57
2022-10-19T15:14:45.729Z,20.55
2022-10-19T15:17:24.233Z,20.51
2022-10-19T15:19:51.389Z,20.47
2022-10-19T15:22:22.573Z,20.42
2022-10-19T15:24:55.582Z,20.36
2022-10-19T15:27:23.229Z,20.31
2022-10-19T15:29:56.822Z,20.26
2022-10-19T15:32:24.597Z,20.20
2022-10-19T15:34:51.224Z,20.12
2022-10-19T15:37:20.357Z,20.07
2022-10-19T15:39:47.269Z,20.02
2022-10-19T15:42:37.364Z,19.97
2022-10-19T15:45:04.997Z,19.90
2022-10-19T15:47:31.545Z,19.84
2022-10-19T15:50:00.037Z,19.78
2022-10-19T15:52:28.089Z,19.71
2022-10-19T15:54:56.052Z,19.64
2022-10-19T15:57:31.595Z,19.55
2022-10-19T15:59:59.078Z,19.46
2022-10-19T16:02:25.906Z,19.35
2022-10-19T16:04:53.678Z,19.25
2022-10-19T16:07:24.746Z,19.14
2022-10-19T16:09:51.346Z,19.04
2022-10-19T16:12:17.707Z,18.93
2022-10-19T16:14:44.052Z,18.82
2022-10-19T16:17:13.082Z,18.71
2022-10-19T16:19:39.457Z,18.62
2022-10-19T16:22:05.878Z,18.52
2022-10-19T20:11:51.060Z,13.22
2022-10-19T20:14:18.811Z,13.21
2022-10-19T20:16:45.243Z,13.19
2022-10-19T20:19:13.287Z,13.16
2022-10-19T20:21:40.495Z,13.14
2022-10-19T20:24:07.502Z,13.11
2022-10-19T20:26:34.200Z,13.08
2022-10-19T20:29:01.984Z,13.06
2022-10-19T20:31:29.497Z,13.04
2022-10-19T20:33:55.832Z,13.01
2022-10-19T20:36:24.013Z,12.99
2022-10-19T20:38:57.837Z,12.97
2022-10-19T20:41:25.225Z,12.95
2022-10-19T20:43:51.866Z,12.94
2022-10-19T20:46:21.148Z,12.92
2022-10-19T20:48:47.912Z,12.90
2022-10-19T20:51:15.915Z,12.89
2022-10-19T20:53:43.634Z,12.87
2022-10-19T20:56:10.598Z,12.86
2022-10-19T20:58:40.254Z,12.85
2022-10-19T21:01:11.204Z,12.83
2022-10-19T21:03:37.660Z,12.81
2022-10-19T21:06:05.468Z,12.81
2022-10-19T21:08:33.152Z,12.78
2022-10-19T21:10:59.558Z,12.77
2022-10-19T21:13:26.267Z,12.75
2022-10-19T21:15:52.669Z,12.72
2022-10-19T21:18:19.164Z,12.71
2022-10-19T21:20:45.557Z,12.67
2022-10-19T21:23:11.964Z,12.65
2022-10-19T21:25:38.312Z,12.62
2022-10-19T21:28:04.753Z,12.60
2022-10-19T21:30:31.326Z,12.57
2022-10-19T21:32:58.421Z,12.54
2022-10-19T21:35:24.744Z,12.53
2022-10-19T21:37:51.236Z,12.48
2022-10-19T21:40:17.589Z,12.47
2022-10-19T21:42:45.089Z,12.45
2022-10-19T21:45:29.060Z,12.43
2022-10-19T21:47:56.476Z,12.40
2022-10-19T21:50:22.823Z,12.38
2022-10-19T21:52:49.168Z,12.36
2022-10-19T21:55:15.580Z,12.32
2022-10-19T21:57:41.975Z,12.29
2022-10-19T22:00:08.601Z,12.25
2022-10-19T22:02:34.927Z,12.21
2022-10-19T22:05:01.531Z,12.17
2022-10-19T22:07:27.864Z,12.13
2022-10-19T22:09:54.968Z,12.08
2022-10-19T22:12:21.518Z,12.05
2022-10-19T22:14:47.947Z,12.01
2022-10-19T22:17:14.296Z,11.98
2022-10-19T22:19:40.623Z,11.95
2022-10-19T22:22:06.984Z,11.89
2022-10-19T22:24:34.760Z,11.84
2022-10-19T22:27:03.626Z,11.81
2022-10-19T22:29:32.383Z,11.77
2022-10-19T22:31:58.781Z,11.74
2022-10-19T22:34:25.164Z,11.70
2022-10-19T22:36:51.494Z,11.67
2022-10-19T22:39:17.939Z,11.64
2022-10-19T22:41:44.390Z,11.62
2022-10-19T22:44:10.741Z,11.58
2022-10-19T22:46:37.089Z,11.54
2022-10-19T22:49:03.569Z,11.53
2022-10-19T22:51:29.996Z,11.50
2022-10-19T22:53:56.489Z,11.48
2022-10-19T22:56:26.248Z,11.46
2022-10-19T22:58:52.629Z,11.43
2022-10-19T23:01:19.491Z,11.41
2022-10-19T23:03:45.982Z,11.38
2022-10-19T23:06:13.943Z,11.37
2022-10-19T23:08:40.334Z,11.33
2022-10-19T23:11:07.225Z,11.32
2022-10-19T23:13:33.653Z,11.28
2022-10-19T23:16:00.019Z,11.25
2022-10-19T23:18:26.370Z,11.22
2022-10-19T23:20:59.733Z,11.19
2022-10-19T23:23:26.654Z,11.17
2022-10-19T23:26:04.104Z,11.14
2022-10-19T23:28:31.054Z,11.11
2022-10-19T23:30:58.540Z,11.08
2022-10-19T23:33:25.726Z,11.05
2022-10-19T23:35:54.482Z,11.03
2022-10-19T23:38:20.858Z,11.00
2022-10-19T23:40:49.362Z,10.98
2022-10-19T23:43:15.762Z,10.92
2022-10-19T23:45:42.088Z,10.89
2022-10-19T23:48:08.498Z,10.84
2022-10-19T23:50:34.898Z,10.80
2022-10-19T23:53:01.247Z,10.75
2022-10-19T23:55:27.598Z,10.70
2022-10-19T23:57:53.963Z,10.64
